Weather History for Russell, KS

Change the Weather History Date:

Thursday, February 21, 2013

  Actual Average Record
Temperature  
Mean Temperature 16 °F -  
Max Temperature 21 °F 46 °F 81 °F (1977)
Min Temperature 12 °F 24 °F -4 °F (1978)
Degree Days  
Heating Degree Days 48    
Moisture  
Dew Point 16 °F    
Average Humidity 88    
Maximum Humidity 93    
Minimum Humidity 81    
Precipitation  
Precipitation 0.18 in - - ()
Sea Level Pressure  
Sea Level Pressure 29.85 in    
Wind  
Wind Speed 17 mph (NNE)    
Max Wind Speed 23 mph    
Max Gust Speed 29 mph    
Visibility 2 miles    
Events Fog , Snow    
Averages and records for this station are not official NWS values.
T = Trace of Precipitation, MM = Missing Value Source: NWS Daily Summary

Daily Weather History Graph

Daily Weather History Graph

Search for Another Location

Airport:

Trip Planner

Search our weather history database for the weather conditions in past years. The results will help you decide how hot, cold, wet, or windy it might be!

Date:

Astronomy

Feb. 21, 2013 Rise Set
Actual Time 7:18 AM CST 6:19 PM CST
Civil Twilight 6:51 AM CST 6:46 PM CST
Nautical Twilight 6:20 AM CST 7:17 PM CST
Astronomical Twilight 5:49 AM CST 7:48 PM CST
Moon 2:37 PM CST (2/21) 4:22 AM CST (2/21)
Length of Visible Light 11h 55m
Length of Day
11h 01m
Waxing Gibbous, 84% of the Moon is Illuminated
Feb 21
Waxing Gibbous
Feb 25
Full
Mar 4
Last Quarter
Mar 11
New
Mar 19
First Quarter

Hourly Weather History & Observations

Time (CST) Temp. Windchill Dew Point Humidity Pressure Visibility Wind Dir Wind Speed Gust Speed Precip Events Conditions
12:13 AM 21.2 °F 6.8 °F 19.4 °F 93% 29.98 in 2.5 mi East 17.3 mph - 0.00 in Snow Light Snow
12:32 AM 21.2 °F 6.4 °F 19.4 °F 93% 29.98 in 3.0 mi East 18.4 mph - 0.00 in Snow Light Snow
12:47 AM 21.2 °F 5.6 °F 17.6 °F 86% 29.95 in 1.8 mi East 20.7 mph - 0.00 in Snow Light Snow
12:53 AM 21.0 °F 6.2 °F 18.0 °F 88% 30.04 in 1.0 mi East 18.4 mph - 0.01 in Snow Light Snow
1:02 AM 21.2 °F 6.8 °F 17.6 °F 86% 29.96 in 0.8 mi East 17.3 mph - 0.00 in Snow Light Snow
1:13 AM 19.4 °F 3.6 °F 17.6 °F 93% 29.94 in 1.0 mi East 19.6 mph - 0.00 in Snow Light Snow
1:42 AM 19.4 °F 3.2 °F 17.6 °F 93% 29.93 in 1.5 mi East 20.7 mph 28.8 mph 0.00 in Snow Light Snow
1:53 AM 19.9 °F 3.5 °F 17.1 °F 89% 29.99 in 2.0 mi East 21.9 mph 27.6 mph 0.00 in Snow Light Snow
2:23 AM 19.4 °F 2.5 °F 17.6 °F 93% 29.89 in 2.0 mi East 23.0 mph 28.8 mph 0.00 in Snow Light Snow
2:41 AM 19.4 °F 2.8 °F 17.6 °F 93% 29.90 in 1.5 mi East 21.9 mph - 0.00 in Snow Light Snow
2:53 AM 19.9 °F 4.3 °F 17.1 °F 89% 29.97 in 1.5 mi East 19.6 mph - 0.00 in Snow Light Snow
3:03 AM 19.4 °F 4.1 °F 17.6 °F 93% 29.88 in 2.5 mi East 18.4 mph - 0.00 in Snow Light Snow
3:25 AM 19.4 °F 3.6 °F 17.6 °F 93% 29.85 in 1.8 mi ENE 19.6 mph - 0.00 in Snow Light Snow
3:33 AM 19.4 °F 3.6 °F 17.6 °F 93% 29.85 in 2.5 mi ENE 19.6 mph - 0.00 in Snow Light Snow
3:46 AM 19.4 °F 3.2 °F 17.6 °F 93% 29.86 in 3.0 mi ENE 20.7 mph - 0.00 in Snow Light Snow
3:53 AM 19.9 °F 3.2 °F 17.1 °F 89% 29.93 in 3.0 mi ENE 23.0 mph 28.8 mph 0.00 in Snow Light Snow
3:57 AM 19.4 °F 2.8 °F 17.6 °F 93% 29.86 in 2.5 mi ENE 21.9 mph 28.8 mph 0.00 in Snow Light Snow
4:09 AM 19.4 °F 4.1 °F 17.6 °F 93% 29.87 in 1.5 mi East 18.4 mph - 0.00 in Snow Light Snow
4:29 AM 19.4 °F 5.0 °F 17.6 °F 93% 29.86 in 0.8 mi ENE 16.1 mph - 0.00 in Snow Light Snow
4:53 AM 19.9 °F 6.2 °F 17.1 °F 89% 29.93 in 0.8 mi ENE 15.0 mph - 0.02 in Snow Light Snow
5:00 AM 19.4 °F 5.0 °F 17.6 °F 93% 29.86 in 0.8 mi ENE 16.1 mph - 0.01 in Snow Light Snow
5:48 AM 19.4 °F 5.0 °F 17.6 °F 93% 29.85 in 0.8 mi ENE 16.1 mph - 0.04 in Snow Light Snow
5:53 AM 19.9 °F 5.2 °F 18.0 °F 92% 29.91 in 0.8 mi ENE 17.3 mph - 0.04 in Snow Light Snow
6:07 AM 19.4 °F 4.5 °F 17.6 °F 93% 29.85 in 1.0 mi ENE 17.3 mph - 0.01 in Snow Light Snow
6:34 AM 19.4 °F 3.6 °F 17.6 °F 93% 29.84 in 0.8 mi ENE 19.6 mph - 0.01 in Snow Light Snow
6:53 AM 19.9 °F 5.7 °F 18.0 °F 92% 29.91 in 0.5 mi ENE 16.1 mph - 0.01 in Fog , Snow Snow
7:53 AM 19.0 °F 5.0 °F 17.1 °F 92% 29.93 in 0.5 mi NE 15.0 mph - 0.01 in Fog , Snow Snow
8:26 AM 19.4 °F 5.5 °F 17.6 °F 93% 29.85 in 0.2 mi NE 15.0 mph - 0.01 in Fog , Snow Heavy Snow
8:53 AM 19.0 °F 4.5 °F 16.0 °F 88% 29.91 in 0.2 mi NNE 16.1 mph - 0.02 in Fog , Snow Heavy Snow
9:53 AM 19.0 °F 4.0 °F 16.0 °F 88% 29.90 in 0.2 mi NE 17.3 mph - 0.01 in Fog Light Freezing Fog
10:26 AM 19.4 °F 4.5 °F 15.8 °F 86% 29.81 in 0.8 mi NNE 17.3 mph - 0.01 in   Overcast
10:38 AM 19.4 °F 4.1 °F 15.8 °F 86% 29.81 in 0.8 mi NNE 18.4 mph 24.2 mph 0.01 in   Overcast
10:53 AM 19.0 °F 3.6 °F 15.1 °F 85% 29.88 in 0.8 mi NE 18.4 mph 24.2 mph 0.02 in   Overcast
11:32 AM 19.4 °F 4.1 °F 15.8 °F 86% 29.80 in 0.5 mi NNE 18.4 mph - 0.02 in Fog , Snow Snow
11:53 AM 19.0 °F 2.7 °F 15.1 °F 85% 29.85 in 0.2 mi NNE 20.7 mph - 0.02 in Fog , Snow Heavy Snow
12:44 PM 19.4 °F 5.5 °F 15.8 °F 86% 29.80 in 0.5 mi NNE 15.0 mph - 0.00 in Fog Light Freezing Fog
12:53 PM 19.0 °F 4.0 °F 16.0 °F 88% 29.88 in 0.5 mi NNE 17.3 mph - 0.00 in Fog Light Freezing Fog
1:13 PM 19.4 °F 7.2 °F 15.8 °F 86% 29.80 in 0.5 mi NNE 11.5 mph - 0.01 in Fog Light Freezing Fog
1:28 PM 19.4 °F 5.5 °F 15.8 °F 86% 29.79 in 1.0 mi NNE 15.0 mph - 0.01 in   Overcast
1:53 PM 19.9 °F 6.2 °F 15.1 °F 81% 29.86 in 1.8 mi NE 15.0 mph - 0.01 in   Haze
2:27 PM 19.4 °F 6.0 °F 15.8 °F 86% 29.76 in 2.0 mi NNE 13.8 mph 20.7 mph N/A   Overcast
2:38 PM 19.4 °F 6.0 °F 15.8 °F 86% 29.76 in 1.8 mi NNE 13.8 mph - N/A   Haze
2:43 PM 19.4 °F 6.6 °F 15.8 °F 86% 29.76 in 1.8 mi North 12.7 mph - N/A   Haze
2:46 PM 19.4 °F 5.5 °F 15.8 °F 86% 29.76 in 1.8 mi North 15.0 mph - N/A   Haze
2:53 PM 19.9 °F 7.3 °F 15.1 °F 81% 29.84 in 2.0 mi North 12.7 mph - 0.00 in Snow Light Snow
3:10 PM 19.4 °F 6.6 °F 15.8 °F 86% 29.76 in 3.0 mi NNE 12.7 mph - 0.00 in Snow Light Snow
3:21 PM 19.4 °F 7.9 °F 15.8 °F 86% 29.76 in 2.5 mi North 10.4 mph - 0.00 in Snow Light Snow
3:30 PM 19.4 °F 7.9 °F 15.8 °F 86% 29.76 in 0.8 mi NNW 10.4 mph - 0.00 in Snow Light Snow
3:53 PM 19.9 °F 7.3 °F 16.0 °F 85% 29.84 in 0.8 mi North 12.7 mph - 0.00 in Snow Light Snow
3:59 PM 19.4 °F 6.6 °F 15.8 °F 86% 29.76 in 1.0 mi North 12.7 mph - 0.00 in Snow Light Snow
4:09 PM 19.4 °F 6.6 °F 15.8 °F 86% 29.76 in 1.8 mi North 12.7 mph - 0.00 in Snow Light Snow
4:14 PM 19.4 °F 6.0 °F 15.8 °F 86% 29.76 in 3.0 mi North 13.8 mph - 0.00 in Snow Light Snow
4:33 PM 19.4 °F 6.0 °F 15.8 °F 86% 29.76 in 4.0 mi North 13.8 mph - 0.00 in Snow Light Snow
4:53 PM 19.0 °F 6.8 °F 15.1 °F 85% 29.86 in 7.0 mi North 11.5 mph - 0.00 in   Overcast
5:00 PM 19.4 °F 6.6 °F 15.8 °F 86% 29.77 in 4.0 mi North 12.7 mph - 0.00 in Snow Light Snow
5:10 PM 19.4 °F 6.6 °F 15.8 °F 86% 29.78 in 2.0 mi North 12.7 mph - 0.00 in Snow Light Snow
5:17 PM 19.4 °F 7.2 °F 15.8 °F 86% 29.78 in 1.5 mi NNW 11.5 mph - 0.00 in Snow Light Snow
5:29 PM 19.4 °F 6.6 °F 15.8 °F 86% 29.78 in 1.5 mi North 12.7 mph - 0.00 in Snow Light Snow
5:41 PM 19.4 °F 6.6 °F 15.8 °F 86% 29.78 in 2.0 mi NNW 12.7 mph - 0.00 in Snow Light Snow
5:48 PM 19.4 °F 7.9 °F 15.8 °F 86% 29.79 in 1.5 mi NNW 10.4 mph - 0.00 in Snow Light Snow
5:53 PM 19.0 °F 7.5 °F 16.0 °F 88% 29.87 in 0.8 mi NNW 10.4 mph - 0.00 in Snow Light Snow
6:17 PM 19.4 °F 7.9 °F 15.8 °F 86% 29.79 in 1.0 mi NNW 10.4 mph - 0.01 in Snow Light Snow
6:36 PM 19.4 °F 7.9 °F 15.8 °F 86% 29.80 in 2.0 mi NW 10.4 mph - 0.01 in Snow Light Snow
6:45 PM 19.4 °F 7.9 °F 15.8 °F 86% 29.80 in 5.0 mi NNW 10.4 mph - 0.01 in Snow Light Snow
6:53 PM 19.0 °F 6.8 °F 16.0 °F 88% 29.89 in 7.0 mi NW 11.5 mph - 0.01 in Snow Light Snow
7:22 PM 17.6 °F 3.7 °F 15.8 °F 93% 29.81 in 7.0 mi NNW 13.8 mph - 0.00 in Snow Light Snow
7:38 PM 17.6 °F 4.3 °F 15.8 °F 93% 29.81 in 5.0 mi NW 12.7 mph - 0.00 in Snow Light Snow
7:53 PM 18.0 °F 3.6 °F 15.1 °F 88% 29.90 in 8.0 mi NW 15.0 mph - 0.00 in   Overcast
8:53 PM 17.1 °F 2.5 °F 12.9 °F 84% 29.92 in 10.0 mi NNW 15.0 mph - 0.00 in   Mostly Cloudy
9:09 PM 15.8 °F 1.4 °F 12.2 °F 86% 29.84 in 10.0 mi NW 13.8 mph - N/A   Scattered Clouds
9:53 PM 14.0 °F 0.5 °F 12.0 °F 92% 29.94 in 10.0 mi NW 11.5 mph - N/A   Partly Cloudy
10:53 PM 12.9 °F -3.4 °F 10.0 °F 88% 29.96 in 10.0 mi NW 16.1 mph - N/A   Clear
11:53 PM 14.0 °F -2.0 °F 10.0 °F 84% 29.99 in 10.0 mi NW 16.1 mph - N/A   Partly Cloudy